sensor_id;sensor_type;location;lat;lon;timestamp;P1;durP1;ratioP1;P2;durP2;ratioP2
4652;SDS011;9900;48.738;9.306;2024-01-30T00:00:02;16.33;;;8.70;;
4652;SDS011;9900;48.738;9.306;2024-01-30T00:02:31;24.17;;;9.30;;
4652;SDS011;9900;48.738;9.306;2024-01-30T00:05:00;15.93;;;8.63;;
4652;SDS011;9900;48.738;9.306;2024-01-30T00:07:31;16.50;;;8.83;;
4652;SDS011;9900;48.738;9.306;2024-01-30T00:10:00;13.77;;;8.30;;
4652;SDS011;9900;48.738;9.306;2024-01-30T00:12:29;16.53;;;9.83;;
4652;SDS011;9900;48.738;9.306;2024-01-30T00:14:59;18.70;;;8.87;;
4652;SDS011;9900;48.738;9.306;2024-01-30T00:17:29;15.10;;;8.43;;
4652;SDS011;9900;48.738;9.306;2024-01-30T00:19:58;15.97;;;8.17;;
4652;SDS011;9900;48.738;9.306;2024-01-30T00:22:27;14.97;;;8.50;;
4652;SDS011;9900;48.738;9.306;2024-01-30T00:24:57;19.97;;;8.17;;
4652;SDS011;9900;48.738;9.306;2024-01-30T00:27:27;16.27;;;8.73;;
4652;SDS011;9900;48.738;9.306;2024-01-30T00:29:55;14.07;;;8.57;;
4652;SDS011;9900;48.738;9.306;2024-01-30T00:32:24;15.00;;;8.60;;
4652;SDS011;9900;48.738;9.306;2024-01-30T00:34:54;13.30;;;8.17;;
4652;SDS011;9900;48.738;9.306;2024-01-30T00:37:23;14.90;;;8.30;;
4652;SDS011;9900;48.738;9.306;2024-01-30T00:39:52;18.43;;;8.90;;
4652;SDS011;9900;48.738;9.306;2024-01-30T00:42:21;18.77;;;8.43;;
4652;SDS011;9900;48.738;9.306;2024-01-30T00:44:51;20.07;;;8.30;;
4652;SDS011;9900;48.738;9.306;2024-01-30T00:47:20;15.37;;;9.03;;
4652;SDS011;9900;48.738;9.306;2024-01-30T00:49:48;16.87;;;9.00;;
4652;SDS011;9900;48.738;9.306;2024-01-30T00:52:19;17.03;;;8.77;;
4652;SDS011;9900;48.738;9.306;2024-01-30T00:54:48;15.77;;;8.67;;
4652;SDS011;9900;48.738;9.306;2024-01-30T00:57:17;15.00;;;8.83;;
4652;SDS011;9900;48.738;9.306;2024-01-30T00:59:46;13.90;;;8.10;;
4652;SDS011;9900;48.738;9.306;2024-01-30T01:02:14;13.13;;;7.83;;
4652;SDS011;9900;48.738;9.306;2024-01-30T01:04:44;22.17;;;8.90;;
4652;SDS011;9900;48.738;9.306;2024-01-30T01:07:13;16.43;;;9.30;;
4652;SDS011;9900;48.738;9.306;2024-01-30T01:09:43;20.37;;;9.30;;
4652;SDS011;9900;48.738;9.306;2024-01-30T01:12:12;19.20;;;9.33;;
4652;SDS011;9900;48.738;9.306;2024-01-30T01:14:41;19.63;;;9.37;;
4652;SDS011;9900;48.738;9.306;2024-01-30T01:17:10;14.40;;;9.07;;
4652;SDS011;9900;48.738;9.306;2024-01-30T01:19:39;18.50;;;10.83;;
4652;SDS011;9900;48.738;9.306;2024-01-30T01:22:08;20.57;;;9.43;;
4652;SDS011;9900;48.738;9.306;2024-01-30T01:24:37;17.60;;;9.77;;
4652;SDS011;9900;48.738;9.306;2024-01-30T01:27:07;14.40;;;8.97;;
4652;SDS011;9900;48.738;9.306;2024-01-30T01:29:36;17.20;;;9.67;;
4652;SDS011;9900;48.738;9.306;2024-01-30T01:32:05;14.10;;;7.90;;
4652;SDS011;9900;48.738;9.306;2024-01-30T01:34:34;14.67;;;8.00;;
4652;SDS011;9900;48.738;9.306;2024-01-30T01:37:03;19.90;;;9.70;;
4652;SDS011;9900;48.738;9.306;2024-01-30T01:39:32;13.97;;;8.77;;
4652;SDS011;9900;48.738;9.306;2024-01-30T01:42:01;19.27;;;9.53;;
4652;SDS011;9900;48.738;9.306;2024-01-30T01:44:31;15.50;;;8.90;;
4652;SDS011;9900;48.738;9.306;2024-01-30T01:46:59;16.80;;;8.80;;
4652;SDS011;9900;48.738;9.306;2024-01-30T01:49:28;17.67;;;9.60;;
4652;SDS011;9900;48.738;9.306;2024-01-30T01:51:57;14.63;;;8.27;;
4652;SDS011;9900;48.738;9.306;2024-01-30T01:54:27;21.20;;;9.73;;
4652;SDS011;9900;48.738;9.306;2024-01-30T01:56:56;17.30;;;9.00;;
4652;SDS011;9900;48.738;9.306;2024-01-30T01:59:25;18.77;;;8.23;;
4652;SDS011;9900;48.738;9.306;2024-01-30T02:01:56;18.37;;;8.70;;
4652;SDS011;9900;48.738;9.306;2024-01-30T02:04:25;19.80;;;8.83;;
4652;SDS011;9900;48.738;9.306;2024-01-30T02:06:54;18.80;;;9.10;;
4652;SDS011;9900;48.738;9.306;2024-01-30T02:09:23;22.53;;;10.00;;
4652;SDS011;9900;48.738;9.306;2024-01-30T02:11:52;12.90;;;7.80;;
4652;SDS011;9900;48.738;9.306;2024-01-30T02:14:21;18.03;;;7.80;;
4652;SDS011;9900;48.738;9.306;2024-01-30T02:16:50;12.70;;;8.00;;
4652;SDS011;9900;48.738;9.306;2024-01-30T02:19:20;14.00;;;7.90;;
4652;SDS011;9900;48.738;9.306;2024-01-30T02:21:50;14.03;;;8.03;;
4652;SDS011;9900;48.738;9.306;2024-01-30T02:24:19;15.53;;;7.80;;
4652;SDS011;9900;48.738;9.306;2024-01-30T02:26:48;14.13;;;9.00;;
4652;SDS011;9900;48.738;9.306;2024-01-30T02:29:17;14.43;;;7.97;;
4652;SDS011;9900;48.738;9.306;2024-01-30T02:31:47;15.73;;;7.90;;
4652;SDS011;9900;48.738;9.306;2024-01-30T02:34:15;14.60;;;7.67;;
4652;SDS011;9900;48.738;9.306;2024-01-30T02:36:46;12.87;;;7.80;;
4652;SDS011;9900;48.738;9.306;2024-01-30T02:39:16;11.43;;;7.33;;
4652;SDS011;9900;48.738;9.306;2024-01-30T02:41:45;17.03;;;7.83;;
4652;SDS011;9900;48.738;9.306;2024-01-30T02:44:14;14.10;;;8.67;;
4652;SDS011;9900;48.738;9.306;2024-01-30T02:46:43;16.77;;;8.37;;
4652;SDS011;9900;48.738;9.306;2024-01-30T02:49:11;14.30;;;8.53;;
4652;SDS011;9900;48.738;9.306;2024-01-30T02:51:40;14.27;;;7.47;;
4652;SDS011;9900;48.738;9.306;2024-01-30T02:54:09;12.50;;;7.80;;
4652;SDS011;9900;48.738;9.306;2024-01-30T02:56:39;16.57;;;7.63;;
4652;SDS011;9900;48.738;9.306;2024-01-30T02:59:08;10.23;;;8.10;;
4652;SDS011;9900;48.738;9.306;2024-01-30T03:01:42;11.93;;;7.93;;
4652;SDS011;9900;48.738;9.306;2024-01-30T03:04:11;12.90;;;6.93;;
4652;SDS011;9900;48.738;9.306;2024-01-30T03:06:44;16.00;;;7.87;;
4652;SDS011;9900;48.738;9.306;2024-01-30T03:09:15;14.67;;;8.00;;
4652;SDS011;9900;48.738;9.306;2024-01-30T03:11:46;15.43;;;8.00;;
4652;SDS011;9900;48.738;9.306;2024-01-30T03:14:14;14.60;;;7.37;;
4652;SDS011;9900;48.738;9.306;2024-01-30T03:16:43;12.80;;;7.63;;
4652;SDS011;9900;48.738;9.306;2024-01-30T03:19:12;15.20;;;8.07;;
4652;SDS011;9900;48.738;9.306;2024-01-30T03:21:41;12.70;;;8.00;;
4652;SDS011;9900;48.738;9.306;2024-01-30T03:24:10;12.40;;;7.23;;
4652;SDS011;9900;48.738;9.306;2024-01-30T03:26:39;11.87;;;7.10;;
4652;SDS011;9900;48.738;9.306;2024-01-30T03:29:09;14.80;;;7.70;;
4652;SDS011;9900;48.738;9.306;2024-01-30T03:31:38;11.47;;;7.23;;
4652;SDS011;9900;48.738;9.306;2024-01-30T03:34:07;9.90;;;6.90;;
4652;SDS011;9900;48.738;9.306;2024-01-30T03:36:35;12.90;;;8.17;;
4652;SDS011;9900;48.738;9.306;2024-01-30T03:39:04;14.20;;;7.33;;
4652;SDS011;9900;48.738;9.306;2024-01-30T03:41:33;10.70;;;7.47;;
4652;SDS011;9900;48.738;9.306;2024-01-30T03:44:02;16.07;;;8.63;;
4652;SDS011;9900;48.738;9.306;2024-01-30T03:46:32;13.77;;;8.20;;
4652;SDS011;9900;48.738;9.306;2024-01-30T03:49:01;15.33;;;8.37;;
4652;SDS011;9900;48.738;9.306;2024-01-30T03:51:30;13.07;;;7.47;;
4652;SDS011;9900;48.738;9.306;2024-01-30T03:53:58;21.10;;;7.67;;
4652;SDS011;9900;48.738;9.306;2024-01-30T03:56:27;14.60;;;7.80;;
4652;SDS011;9900;48.738;9.306;2024-01-30T03:58:56;13.27;;;7.67;;
4652;SDS011;9900;48.738;9.306;2024-01-30T04:01:25;12.83;;;7.50;;
4652;SDS011;9900;48.738;9.306;2024-01-30T04:03:56;13.57;;;7.57;;
4652;SDS011;9900;48.738;9.306;2024-01-30T04:06:25;14.60;;;8.23;;
4652;SDS011;9900;48.738;9.306;2024-01-30T04:08:54;16.13;;;7.40;;
4652;SDS011;9900;48.738;9.306;2024-01-30T04:11:23;13.10;;;7.53;;
4652;SDS011;9900;48.738;9.306;2024-01-30T04:13:52;14.60;;;7.93;;
4652;SDS011;9900;48.738;9.306;2024-01-30T04:16:21;14.10;;;7.63;;
4652;SDS011;9900;48.738;9.306;2024-01-30T04:18:50;13.30;;;7.00;;
4652;SDS011;9900;48.738;9.306;2024-01-30T04:21:21;17.00;;;7.33;;
4652;SDS011;9900;48.738;9.306;2024-01-30T04:23:50;13.57;;;7.83;;
4652;SDS011;9900;48.738;9.306;2024-01-30T04:26:19;20.80;;;9.00;;
4652;SDS011;9900;48.738;9.306;2024-01-30T04:28:48;15.20;;;8.50;;
4652;SDS011;9900;48.738;9.306;2024-01-30T04:31:17;17.30;;;7.43;;
4652;SDS011;9900;48.738;9.306;2024-01-30T04:33:46;15.70;;;7.27;;
4652;SDS011;9900;48.738;9.306;2024-01-30T04:36:15;18.03;;;8.50;;
4652;SDS011;9900;48.738;9.306;2024-01-30T04:38:45;19.03;;;8.53;;
4652;SDS011;9900;48.738;9.306;2024-01-30T04:41:13;11.83;;;7.07;;
4652;SDS011;9900;48.738;9.306;2024-01-30T04:43:42;16.97;;;8.30;;
4652;SDS011;9900;48.738;9.306;2024-01-30T04:46:11;26.13;;;8.20;;
4652;SDS011;9900;48.738;9.306;2024-01-30T04:48:39;13.63;;;7.53;;
4652;SDS011;9900;48.738;9.306;2024-01-30T04:51:08;16.13;;;7.77;;
4652;SDS011;9900;48.738;9.306;2024-01-30T04:53:37;18.50;;;8.17;;
4652;SDS011;9900;48.738;9.306;2024-01-30T04:56:08;15.20;;;8.23;;
4652;SDS011;9900;48.738;9.306;2024-01-30T04:58:37;15.80;;;7.43;;
4652;SDS011;9900;48.738;9.306;2024-01-30T05:01:05;13.23;;;7.30;;
4652;SDS011;9900;48.738;9.306;2024-01-30T05:03:34;16.13;;;7.70;;
4652;SDS011;9900;48.738;9.306;2024-01-30T05:06:03;14.13;;;7.87;;
4652;SDS011;9900;48.738;9.306;2024-01-30T05:08:32;16.80;;;7.40;;
4652;SDS011;9900;48.738;9.306;2024-01-30T05:11:04;21.20;;;8.57;;
4652;SDS011;9900;48.738;9.306;2024-01-30T05:13:34;17.07;;;8.40;;
4652;SDS011;9900;48.738;9.306;2024-01-30T05:16:03;16.67;;;8.50;;
4652;SDS011;9900;48.738;9.306;2024-01-30T05:18:32;17.10;;;8.03;;
4652;SDS011;9900;48.738;9.306;2024-01-30T05:21:01;16.03;;;8.60;;
4652;SDS011;9900;48.738;9.306;2024-01-30T05:23:31;18.63;;;8.70;;
4652;SDS011;9900;48.738;9.306;2024-01-30T05:25:59;14.37;;;7.90;;
4652;SDS011;9900;48.738;9.306;2024-01-30T05:28:28;16.00;;;7.23;;
4652;SDS011;9900;48.738;9.306;2024-01-30T05:30:59;18.63;;;8.00;;
4652;SDS011;9900;48.738;9.306;2024-01-30T05:33:28;18.13;;;8.83;;
4652;SDS011;9900;48.738;9.306;2024-01-30T05:35:56;16.90;;;8.80;;
4652;SDS011;9900;48.738;9.306;2024-01-30T05:38:25;16.50;;;7.80;;
4652;SDS011;9900;48.738;9.306;2024-01-30T05:40:54;12.20;;;7.00;;
4652;SDS011;9900;48.738;9.306;2024-01-30T05:43:25;13.70;;;7.50;;
4652;SDS011;9900;48.738;9.306;2024-01-30T05:45:54;14.87;;;8.40;;
4652;SDS011;9900;48.738;9.306;2024-01-30T05:48:24;14.10;;;7.97;;
4652;SDS011;9900;48.738;9.306;2024-01-30T05:50:52;13.40;;;7.87;;
4652;SDS011;9900;48.738;9.306;2024-01-30T05:53:20;14.00;;;7.80;;
4652;SDS011;9900;48.738;9.306;2024-01-30T05:55:49;17.83;;;8.00;;
4652;SDS011;9900;48.738;9.306;2024-01-30T05:58:18;16.27;;;7.80;;
4652;SDS011;9900;48.738;9.306;2024-01-30T06:00:50;15.87;;;7.67;;
4652;SDS011;9900;48.738;9.306;2024-01-30T06:03:19;13.07;;;7.47;;
4652;SDS011;9900;48.738;9.306;2024-01-30T06:05:49;14.20;;;8.70;;
4652;SDS011;9900;48.738;9.306;2024-01-30T06:08:18;20.23;;;8.60;;
4652;SDS011;9900;48.738;9.306;2024-01-30T06:10:47;17.07;;;8.00;;
4652;SDS011;9900;48.738;9.306;2024-01-30T06:13:16;18.23;;;8.33;;
4652;SDS011;9900;48.738;9.306;2024-01-30T06:15:45;15.47;;;8.03;;
4652;SDS011;9900;48.738;9.306;2024-01-30T06:18:14;14.20;;;8.00;;
4652;SDS011;9900;48.738;9.306;2024-01-30T06:20:42;13.20;;;7.30;;
4652;SDS011;9900;48.738;9.306;2024-01-30T06:23:13;17.10;;;8.83;;
4652;SDS011;9900;48.738;9.306;2024-01-30T06:25:41;15.10;;;8.83;;
4652;SDS011;9900;48.738;9.306;2024-01-30T06:28:10;13.03;;;8.50;;
4652;SDS011;9900;48.738;9.306;2024-01-30T06:30:39;13.20;;;8.47;;
4652;SDS011;9900;48.738;9.306;2024-01-30T06:33:08;15.93;;;8.60;;
4652;SDS011;9900;48.738;9.306;2024-01-30T06:35:37;13.40;;;8.07;;
4652;SDS011;9900;48.738;9.306;2024-01-30T06:38:12;14.43;;;8.60;;
4652;SDS011;9900;48.738;9.306;2024-01-30T06:40:42;15.60;;;8.50;;
4652;SDS011;9900;48.738;9.306;2024-01-30T06:43:11;14.20;;;7.50;;
4652;SDS011;9900;48.738;9.306;2024-01-30T06:45:40;14.33;;;7.10;;
4652;SDS011;9900;48.738;9.306;2024-01-30T06:48:10;18.13;;;9.13;;
4652;SDS011;9900;48.738;9.306;2024-01-30T06:50:38;16.73;;;9.33;;
4652;SDS011;9900;48.738;9.306;2024-01-30T06:53:07;16.80;;;8.63;;
4652;SDS011;9900;48.738;9.306;2024-01-30T06:55:37;15.57;;;9.07;;
4652;SDS011;9900;48.738;9.306;2024-01-30T06:58:06;14.40;;;8.00;;
4652;SDS011;9900;48.738;9.306;2024-01-30T07:00:35;17.90;;;8.93;;
4652;SDS011;9900;48.738;9.306;2024-01-30T07:03:04;18.50;;;8.70;;
4652;SDS011;9900;48.738;9.306;2024-01-30T07:05:33;14.87;;;8.47;;
4652;SDS011;9900;48.738;9.306;2024-01-30T07:08:02;17.37;;;8.17;;
4652;SDS011;9900;48.738;9.306;2024-01-30T07:10:31;21.30;;;8.10;;
4652;SDS011;9900;48.738;9.306;2024-01-30T07:13:02;25.17;;;8.93;;
4652;SDS011;9900;48.738;9.306;2024-01-30T07:15:31;23.73;;;9.17;;
4652;SDS011;9900;48.738;9.306;2024-01-30T07:18:00;22.27;;;9.20;;
4652;SDS011;9900;48.738;9.306;2024-01-30T07:20:29;31.60;;;8.90;;
4652;SDS011;9900;48.738;9.306;2024-01-30T07:22:59;23.03;;;9.20;;
4652;SDS011;9900;48.738;9.306;2024-01-30T07:25:28;20.57;;;9.77;;
4652;SDS011;9900;48.738;9.306;2024-01-30T07:27:57;19.67;;;8.70;;
4652;SDS011;9900;48.738;9.306;2024-01-30T07:30:27;16.50;;;7.93;;
4652;SDS011;9900;48.738;9.306;2024-01-30T07:32:56;23.10;;;9.43;;
4652;SDS011;9900;48.738;9.306;2024-01-30T07:35:25;17.30;;;9.03;;
4652;SDS011;9900;48.738;9.306;2024-01-30T07:37:54;17.73;;;9.07;;
4652;SDS011;9900;48.738;9.306;2024-01-30T07:40:24;17.70;;;9.03;;
4652;SDS011;9900;48.738;9.306;2024-01-30T07:42:53;23.00;;;10.83;;
4652;SDS011;9900;48.738;9.306;2024-01-30T07:45:22;19.40;;;9.30;;
4652;SDS011;9900;48.738;9.306;2024-01-30T07:47:53;20.00;;;9.40;;
4652;SDS011;9900;48.738;9.306;2024-01-30T07:50:22;24.83;;;9.90;;
4652;SDS011;9900;48.738;9.306;2024-01-30T07:52:51;21.93;;;10.00;;
4652;SDS011;9900;48.738;9.306;2024-01-30T07:55:22;22.30;;;9.60;;
4652;SDS011;9900;48.738;9.306;2024-01-30T07:57:52;15.40;;;9.60;;
4652;SDS011;9900;48.738;9.306;2024-01-30T08:00:20;22.10;;;10.30;;
4652;SDS011;9900;48.738;9.306;2024-01-30T08:02:49;20.73;;;9.67;;
4652;SDS011;9900;48.738;9.306;2024-01-30T08:05:23;19.00;;;9.87;;
4652;SDS011;9900;48.738;9.306;2024-01-30T08:07:52;26.13;;;11.20;;
4652;SDS011;9900;48.738;9.306;2024-01-30T08:10:21;30.63;;;12.43;;
4652;SDS011;9900;48.738;9.306;2024-01-30T08:12:50;22.43;;;10.53;;
4652;SDS011;9900;48.738;9.306;2024-01-30T08:15:18;17.90;;;10.63;;
4652;SDS011;9900;48.738;9.306;2024-01-30T08:17:47;22.40;;;11.30;;
4652;SDS011;9900;48.738;9.306;2024-01-30T08:20:16;24.70;;;12.00;;
4652;SDS011;9900;48.738;9.306;2024-01-30T08:22:46;32.10;;;12.50;;
4652;SDS011;9900;48.738;9.306;2024-01-30T08:25:15;22.00;;;11.40;;
4652;SDS011;9900;48.738;9.306;2024-01-30T08:27:44;20.67;;;10.23;;
4652;SDS011;9900;48.738;9.306;2024-01-30T08:30:13;21.73;;;11.40;;
4652;SDS011;9900;48.738;9.306;2024-01-30T08:32:43;19.63;;;11.10;;
4652;SDS011;9900;48.738;9.306;2024-01-30T08:35:12;19.70;;;10.00;;
4652;SDS011;9900;48.738;9.306;2024-01-30T08:37:41;22.77;;;10.63;;
4652;SDS011;9900;48.738;9.306;2024-01-30T08:40:11;27.10;;;10.80;;
4652;SDS011;9900;48.738;9.306;2024-01-30T08:42:40;25.37;;;11.37;;
4652;SDS011;9900;48.738;9.306;2024-01-30T08:45:09;18.43;;;10.23;;
4652;SDS011;9900;48.738;9.306;2024-01-30T08:47:38;20.40;;;10.83;;
4652;SDS011;9900;48.738;9.306;2024-01-30T08:50:08;27.90;;;11.00;;
4652;SDS011;9900;48.738;9.306;2024-01-30T08:52:37;27.33;;;10.43;;
4652;SDS011;9900;48.738;9.306;2024-01-30T08:55:07;27.47;;;10.80;;
4652;SDS011;9900;48.738;9.306;2024-01-30T08:57:38;19.63;;;11.00;;
4652;SDS011;9900;48.738;9.306;2024-01-30T09:00:07;19.73;;;10.30;;
4652;SDS011;9900;48.738;9.306;2024-01-30T09:02:37;23.73;;;9.83;;
4652;SDS011;9900;48.738;9.306;2024-01-30T09:05:06;20.40;;;10.53;;
4652;SDS011;9900;48.738;9.306;2024-01-30T09:07:35;22.00;;;9.43;;
4652;SDS011;9900;48.738;9.306;2024-01-30T09:10:05;18.43;;;10.53;;
4652;SDS011;9900;48.738;9.306;2024-01-30T09:12:39;15.17;;;9.50;;
4652;SDS011;9900;48.738;9.306;2024-01-30T09:15:08;25.70;;;10.23;;
4652;SDS011;9900;48.738;9.306;2024-01-30T09:17:38;18.93;;;9.53;;
4652;SDS011;9900;48.738;9.306;2024-01-30T09:20:07;15.20;;;9.80;;
4652;SDS011;9900;48.738;9.306;2024-01-30T09:22:37;21.10;;;10.80;;
4652;SDS011;9900;48.738;9.306;2024-01-30T09:25:06;13.13;;;8.60;;
4652;SDS011;9900;48.738;9.306;2024-01-30T09:27:35;15.30;;;9.27;;
4652;SDS011;9900;48.738;9.306;2024-01-30T09:30:06;17.80;;;8.30;;
4652;SDS011;9900;48.738;9.306;2024-01-30T09:32:36;12.50;;;7.70;;
4652;SDS011;9900;48.738;9.306;2024-01-30T09:35:05;13.60;;;8.00;;
4652;SDS011;9900;48.738;9.306;2024-01-30T09:37:34;15.53;;;8.10;;
4652;SDS011;9900;48.738;9.306;2024-01-30T09:40:03;10.53;;;7.87;;
4652;SDS011;9900;48.738;9.306;2024-01-30T09:42:34;14.53;;;7.83;;
4652;SDS011;9900;48.738;9.306;2024-01-30T09:45:04;14.03;;;8.13;;
4652;SDS011;9900;48.738;9.306;2024-01-30T09:47:38;14.60;;;8.37;;
4652;SDS011;9900;48.738;9.306;2024-01-30T09:50:09;15.23;;;9.27;;
4652;SDS011;9900;48.738;9.306;2024-01-30T09:52:39;13.97;;;8.50;;
4652;SDS011;9900;48.738;9.306;2024-01-30T09:55:08;16.47;;;8.37;;
4652;SDS011;9900;48.738;9.306;2024-01-30T09:57:37;9.30;;;7.00;;
4652;SDS011;9900;48.738;9.306;2024-01-30T10:00:08;12.93;;;7.97;;
4652;SDS011;9900;48.738;9.306;2024-01-30T10:02:38;16.50;;;8.07;;
4652;SDS011;9900;48.738;9.306;2024-01-30T10:05:07;11.30;;;7.27;;
4652;SDS011;9900;48.738;9.306;2024-01-30T10:07:37;12.70;;;7.73;;
4652;SDS011;9900;48.738;9.306;2024-01-30T10:10:06;14.30;;;8.33;;
4652;SDS011;9900;48.738;9.306;2024-01-30T10:12:35;14.80;;;7.70;;
4652;SDS011;9900;48.738;9.306;2024-01-30T10:15:06;12.00;;;8.03;;
4652;SDS011;9900;48.738;9.306;2024-01-30T10:17:37;13.13;;;8.10;;
4652;SDS011;9900;48.738;9.306;2024-01-30T10:20:06;15.30;;;8.10;;
4652;SDS011;9900;48.738;9.306;2024-01-30T10:22:36;17.50;;;8.43;;
4652;SDS011;9900;48.738;9.306;2024-01-30T10:25:05;16.90;;;8.50;;
4652;SDS011;9900;48.738;9.306;2024-01-30T10:27:35;22.60;;;8.60;;
4652;SDS011;9900;48.738;9.306;2024-01-30T10:30:04;12.87;;;7.80;;
4652;SDS011;9900;48.738;9.306;2024-01-30T10:32:35;20.90;;;8.90;;
4652;SDS011;9900;48.738;9.306;2024-01-30T10:35:04;21.40;;;7.30;;
4652;SDS011;9900;48.738;9.306;2024-01-30T10:37:33;12.63;;;6.97;;
4652;SDS011;9900;48.738;9.306;2024-01-30T10:40:03;9.47;;;7.40;;
4652;SDS011;9900;48.738;9.306;2024-01-30T10:42:33;12.43;;;7.43;;
4652;SDS011;9900;48.738;9.306;2024-01-30T10:45:06;14.13;;;7.50;;
4652;SDS011;9900;48.738;9.306;2024-01-30T10:47:37;10.10;;;6.80;;
4652;SDS011;9900;48.738;9.306;2024-01-30T10:50:08;22.10;;;7.60;;
4652;SDS011;9900;48.738;9.306;2024-01-30T10:52:38;14.33;;;7.30;;
4652;SDS011;9900;48.738;9.306;2024-01-30T10:55:09;9.77;;;6.67;;
4652;SDS011;9900;48.738;9.306;2024-01-30T10:57:38;12.17;;;7.40;;
4652;SDS011;9900;48.738;9.306;2024-01-30T11:00:08;16.83;;;6.97;;
4652;SDS011;9900;48.738;9.306;2024-01-30T11:02:41;24.47;;;7.83;;
4652;SDS011;9900;48.738;9.306;2024-01-30T11:05:11;19.27;;;7.73;;
4652;SDS011;9900;48.738;9.306;2024-01-30T11:07:40;11.60;;;7.30;;
4652;SDS011;9900;48.738;9.306;2024-01-30T11:10:09;15.77;;;6.70;;
4652;SDS011;9900;48.738;9.306;2024-01-30T11:12:40;18.90;;;6.70;;
4652;SDS011;9900;48.738;9.306;2024-01-30T11:15:12;15.40;;;7.17;;
4652;SDS011;9900;48.738;9.306;2024-01-30T11:17:44;15.20;;;6.40;;
4652;SDS011;9900;48.738;9.306;2024-01-30T11:20:14;14.30;;;6.30;;
4652;SDS011;9900;48.738;9.306;2024-01-30T11:22:44;11.90;;;6.70;;
4652;SDS011;9900;48.738;9.306;2024-01-30T11:25:14;10.33;;;6.20;;
4652;SDS011;9900;48.738;9.306;2024-01-30T11:27:44;14.87;;;7.90;;
4652;SDS011;9900;48.738;9.306;2024-01-30T11:30:20;18.33;;;7.80;;
4652;SDS011;9900;48.738;9.306;2024-01-30T11:33:04;24.83;;;8.30;;
4652;SDS011;9900;48.738;9.306;2024-01-30T11:35:35;20.07;;;8.33;;
4652;SDS011;9900;48.738;9.306;2024-01-30T11:38:07;20.37;;;7.13;;
4652;SDS011;9900;48.738;9.306;2024-01-30T11:40:37;16.77;;;8.00;;
4652;SDS011;9900;48.738;9.306;2024-01-30T11:43:07;19.67;;;8.17;;
4652;SDS011;9900;48.738;9.306;2024-01-30T11:45:37;19.83;;;7.90;;
4652;SDS011;9900;48.738;9.306;2024-01-30T11:48:08;19.87;;;8.20;;
4652;SDS011;9900;48.738;9.306;2024-01-30T11:50:39;16.53;;;8.90;;
4652;SDS011;9900;48.738;9.306;2024-01-30T11:53:08;15.07;;;6.67;;
4652;SDS011;9900;48.738;9.306;2024-01-30T11:55:37;27.10;;;8.07;;
4652;SDS011;9900;48.738;9.306;2024-01-30T11:58:06;13.90;;;7.70;;
4652;SDS011;9900;48.738;9.306;2024-01-30T12:00:36;18.10;;;8.40;;
4652;SDS011;9900;48.738;9.306;2024-01-30T12:03:04;13.50;;;6.60;;
4652;SDS011;9900;48.738;9.306;2024-01-30T12:05:35;11.57;;;7.17;;
4652;SDS011;9900;48.738;9.306;2024-01-30T12:08:14;21.23;;;7.80;;
4652;SDS011;9900;48.738;9.306;2024-01-30T12:10:43;15.20;;;6.97;;
4652;SDS011;9900;48.738;9.306;2024-01-30T12:13:12;19.97;;;7.40;;
4652;SDS011;9900;48.738;9.306;2024-01-30T12:15:41;24.73;;;8.10;;
4652;SDS011;9900;48.738;9.306;2024-01-30T12:18:10;17.13;;;7.60;;
4652;SDS011;9900;48.738;9.306;2024-01-30T12:20:40;26.97;;;6.90;;
4652;SDS011;9900;48.738;9.306;2024-01-30T12:23:09;12.27;;;7.60;;
4652;SDS011;9900;48.738;9.306;2024-01-30T12:25:38;10.83;;;6.90;;
4652;SDS011;9900;48.738;9.306;2024-01-30T12:28:07;11.13;;;7.30;;
4652;SDS011;9900;48.738;9.306;2024-01-30T12:30:36;23.43;;;7.57;;
4652;SDS011;9900;48.738;9.306;2024-01-30T12:33:04;17.47;;;6.97;;
4652;SDS011;9900;48.738;9.306;2024-01-30T12:35:35;12.47;;;7.20;;
4652;SDS011;9900;48.738;9.306;2024-01-30T12:38:16;13.43;;;7.77;;
4652;SDS011;9900;48.738;9.306;2024-01-30T12:40:45;14.93;;;7.70;;
4652;SDS011;9900;48.738;9.306;2024-01-30T12:43:14;16.93;;;7.57;;
4652;SDS011;9900;48.738;9.306;2024-01-30T12:45:58;21.97;;;6.77;;
4652;SDS011;9900;48.738;9.306;2024-01-30T12:48:28;14.20;;;7.03;;
4652;SDS011;9900;48.738;9.306;2024-01-30T12:50:57;16.43;;;8.20;;
4652;SDS011;9900;48.738;9.306;2024-01-30T12:53:27;16.63;;;9.40;;
4652;SDS011;9900;48.738;9.306;2024-01-30T12:55:56;16.17;;;9.10;;
4652;SDS011;9900;48.738;9.306;2024-01-30T12:58:25;19.00;;;8.40;;
4652;SDS011;9900;48.738;9.306;2024-01-30T13:00:54;18.13;;;8.53;;
4652;SDS011;9900;48.738;9.306;2024-01-30T13:03:23;23.03;;;8.27;;
4652;SDS011;9900;48.738;9.306;2024-01-30T13:05:52;12.50;;;8.03;;
4652;SDS011;9900;48.738;9.306;2024-01-30T13:08:21;17.40;;;8.27;;
4652;SDS011;9900;48.738;9.306;2024-01-30T13:10:51;13.47;;;8.50;;
4652;SDS011;9900;48.738;9.306;2024-01-30T13:13:20;19.13;;;8.40;;
4652;SDS011;9900;48.738;9.306;2024-01-30T13:15:49;16.40;;;8.73;;
4652;SDS011;9900;48.738;9.306;2024-01-30T13:18:18;13.30;;;8.00;;
4652;SDS011;9900;48.738;9.306;2024-01-30T13:20:47;25.77;;;9.00;;
4652;SDS011;9900;48.738;9.306;2024-01-30T13:23:16;21.60;;;9.07;;
4652;SDS011;9900;48.738;9.306;2024-01-30T13:25:44;16.50;;;7.97;;
4652;SDS011;9900;48.738;9.306;2024-01-30T13:28:15;12.47;;;7.50;;
4652;SDS011;9900;48.738;9.306;2024-01-30T13:30:44;21.07;;;8.23;;
4652;SDS011;9900;48.738;9.306;2024-01-30T13:33:13;11.13;;;7.90;;
4652;SDS011;9900;48.738;9.306;2024-01-30T13:35:42;18.17;;;7.73;;
4652;SDS011;9900;48.738;9.306;2024-01-30T13:38:11;13.20;;;7.40;;
4652;SDS011;9900;48.738;9.306;2024-01-30T13:40:41;11.80;;;7.43;;
4652;SDS011;9900;48.738;9.306;2024-01-30T13:43:10;14.00;;;7.43;;
4652;SDS011;9900;48.738;9.306;2024-01-30T13:45:41;12.60;;;7.53;;
4652;SDS011;9900;48.738;9.306;2024-01-30T13:48:10;13.53;;;6.93;;
4652;SDS011;9900;48.738;9.306;2024-01-30T13:50:39;12.90;;;6.90;;
4652;SDS011;9900;48.738;9.306;2024-01-30T13:53:08;8.93;;;6.07;;
4652;SDS011;9900;48.738;9.306;2024-01-30T13:55:37;10.97;;;6.17;;
4652;SDS011;9900;48.738;9.306;2024-01-30T13:58:06;14.73;;;7.47;;
4652;SDS011;9900;48.738;9.306;2024-01-30T14:00:35;14.20;;;7.53;;
4652;SDS011;9900;48.738;9.306;2024-01-30T14:03:06;14.57;;;7.40;;
4652;SDS011;9900;48.738;9.306;2024-01-30T14:05:35;14.80;;;6.90;;
4652;SDS011;9900;48.738;9.306;2024-01-30T14:08:04;16.50;;;7.70;;
4652;SDS011;9900;48.738;9.306;2024-01-30T14:10:34;11.97;;;6.40;;
4652;SDS011;9900;48.738;9.306;2024-01-30T14:13:03;19.23;;;7.27;;
4652;SDS011;9900;48.738;9.306;2024-01-30T14:15:32;29.67;;;7.60;;
4652;SDS011;9900;48.738;9.306;2024-01-30T14:18:01;17.47;;;7.83;;
4652;SDS011;9900;48.738;9.306;2024-01-30T14:20:31;20.97;;;8.00;;
4652;SDS011;9900;48.738;9.306;2024-01-30T14:23:00;19.20;;;7.70;;
4652;SDS011;9900;48.738;9.306;2024-01-30T14:25:29;13.53;;;7.43;;
4652;SDS011;9900;48.738;9.306;2024-01-30T14:27:58;19.70;;;9.33;;
4652;SDS011;9900;48.738;9.306;2024-01-30T14:30:27;21.27;;;7.53;;
4652;SDS011;9900;48.738;9.306;2024-01-30T14:32:56;18.30;;;7.10;;
4652;SDS011;9900;48.738;9.306;2024-01-30T14:35:25;19.97;;;8.20;;
4652;SDS011;9900;48.738;9.306;2024-01-30T14:37:55;23.33;;;7.23;;
4652;SDS011;9900;48.738;9.306;2024-01-30T14:40:24;15.00;;;7.10;;
4652;SDS011;9900;48.738;9.306;2024-01-30T14:42:53;12.07;;;7.30;;
4652;SDS011;9900;48.738;9.306;2024-01-30T14:45:22;15.20;;;7.07;;
4652;SDS011;9900;48.738;9.306;2024-01-30T14:47:51;18.13;;;7.47;;
4652;SDS011;9900;48.738;9.306;2024-01-30T14:50:20;19.20;;;8.23;;
4652;SDS011;9900;48.738;9.306;2024-01-30T14:52:49;22.43;;;7.20;;
4652;SDS011;9900;48.738;9.306;2024-01-30T14:55:19;12.50;;;7.73;;
4652;SDS011;9900;48.738;9.306;2024-01-30T14:57:48;12.50;;;7.40;;
4652;SDS011;9900;48.738;9.306;2024-01-30T15:00:17;14.83;;;7.50;;
4652;SDS011;9900;48.738;9.306;2024-01-30T15:02:45;21.23;;;7.60;;
4652;SDS011;9900;48.738;9.306;2024-01-30T15:05:14;12.63;;;7.57;;
4652;SDS011;9900;48.738;9.306;2024-01-30T15:07:44;15.23;;;7.60;;
4652;SDS011;9900;48.738;9.306;2024-01-30T15:10:13;19.23;;;7.70;;
4652;SDS011;9900;48.738;9.306;2024-01-30T15:12:43;20.47;;;8.37;;